Terminal Aerodrome Forecast
Issued by NWS Northern Indiana

Home | Current Version | Previous Version | Graphics & Text | Print | Product List | Glossary On
Versions: 1 2 3 4 5 6 7 8 9 10 11 12 13 14
000
FTUS43 KIWX 251700
TAFFWA
TAF
KFWA 251740Z 2518/2618 21005KT P6SM BKN035
     FM260800 22004KT 5SM BR BKN035
     FM261500 25009KT P6SM SCT035=

USA.gov is the U.S. government's official web portal to all federal, state and local government web resources and services.